WAT2918 MTPP-TNCC
Flight info
| Callsign | WAT2918 |
|---|---|
| Flight time | 1h 13m |
| Altitude | 35000 |
| Route | TOVOL1S TOVOL DCT DARKE UA315 VESKA VESKA1B |
| Aircraft | A320/M-SDE3FGHIRWY/LB1 |
Departure
| Time | 2026-04-21 17:55 |
|---|---|
| Airport | Toussaint Louverture International Airport (MTPP) |
Arrival
| Time | 2026-04-21 19:08 |
|---|---|
| Airport | Hato International Airport (TNCC) |
| Time | Latitude | Longitude | Altitude | Speed | Heading |
|---|---|---|---|---|---|
| 2026-04-21 17:43 | 18.57617 | -72.29509 | 176 ft | 0 kts | 187° |
| 2026-04-21 17:46 | 18.57626 | -72.29507 | 176 ft | 2 kts | 187° |
| 2026-04-21 17:46 | 18.57635 | -72.29506 | 176 ft | 2 kts | 186° |
| 2026-04-21 17:47 | 18.57650 | -72.29508 | 175 ft | 2 kts | 160° |
| 2026-04-21 17:47 | 18.57663 | -72.29515 | 175 ft | 2 kts | 140° |
| 2026-04-21 17:47 | 18.57674 | -72.29527 | 175 ft | 2 kts | 119° |
| 2026-04-21 17:47 | 18.57679 | -72.29542 | 175 ft | 2 kts | 98° |
| 2026-04-21 17:48 | 18.57680 | -72.29547 | 175 ft | 0 kts | 92° |
| 2026-04-21 17:48 | 18.57679 | -72.29555 | 175 ft | 0 kts | 89° |
| 2026-04-21 17:50 | 18.57679 | -72.29551 | 175 ft | 1 kts | 89° |
| 2026-04-21 17:50 | 18.57680 | -72.29536 | 175 ft | 3 kts | 90° |
| 2026-04-21 17:50 | 18.57682 | -72.29503 | 175 ft | 6 kts | 82° |
| 2026-04-21 17:51 | 18.57715 | -72.29465 | 174 ft | 9 kts | 0° |
| 2026-04-21 17:51 | 18.57796 | -72.29467 | 173 ft | 13 kts | 360° |
| 2026-04-21 17:51 | 18.57905 | -72.29467 | 171 ft | 16 kts | 359° |
| 2026-04-21 17:51 | 18.57984 | -72.29544 | 169 ft | 17 kts | 283° |
| 2026-04-21 17:52 | 18.57988 | -72.29670 | 169 ft | 17 kts | 267° |
| 2026-04-21 17:52 | 18.57981 | -72.29799 | 169 ft | 17 kts | 266° |
| 2026-04-21 17:52 | 18.57972 | -72.29930 | 167 ft | 18 kts | 266° |
| 2026-04-21 17:52 | 18.57961 | -72.30072 | 166 ft | 19 kts | 264° |
| 2026-04-21 17:53 | 18.57953 | -72.30209 | 167 ft | 19 kts | 267° |
| 2026-04-21 17:53 | 18.57945 | -72.30351 | 165 ft | 19 kts | 266° |
| 2026-04-21 17:53 | 18.57937 | -72.30500 | 164 ft | 20 kts | 266° |
| 2026-04-21 17:53 | 18.57904 | -72.30636 | 161 ft | 16 kts | 248° |
| 2026-04-21 17:54 | 18.57936 | -72.30655 | 160 ft | 5 kts | 78° |
| 2026-04-21 17:54 | 18.57940 | -72.30607 | 161 ft | 33 kts | 86° |
| 2026-04-21 17:54 | 18.57960 | -72.30032 | 167 ft | 118 kts | 87° |
| 2026-04-21 17:54 | 18.58022 | -72.28932 | 261 ft | 174 kts | 87° |
| 2026-04-21 17:55 | 18.58095 | -72.27643 | 1015 ft | 181 kts | 88° |
| 2026-04-21 17:55 | 18.58145 | -72.26399 | 2038 ft | 166 kts | 87° |
| 2026-04-21 17:55 | 18.58199 | -72.25154 | 2529 ft | 180 kts | 86° |
| 2026-04-21 17:55 | 18.58287 | -72.23773 | 2958 ft | 200 kts | 81° |
| 2026-04-21 17:56 | 18.58589 | -72.22287 | 3476 ft | 217 kts | 72° |
| 2026-04-21 17:56 | 18.59155 | -72.20753 | 4017 ft | 234 kts | 66° |
| 2026-04-21 17:56 | 18.59775 | -72.19096 | 4696 ft | 246 kts | 70° |
| 2026-04-21 17:56 | 18.60328 | -72.17406 | 5549 ft | 250 kts | 70° |
| 2026-04-21 17:57 | 18.60870 | -72.15684 | 6440 ft | 252 kts | 71° |
| 2026-04-21 17:57 | 18.61417 | -72.13916 | 7318 ft | 255 kts | 71° |
| 2026-04-21 17:57 | 18.61962 | -72.12138 | 8131 ft | 260 kts | 71° |
| 2026-04-21 17:57 | 18.62505 | -72.10348 | 8922 ft | 264 kts | 73° |
| 2026-04-21 17:58 | 18.62721 | -72.08406 | 9689 ft | 270 kts | 94° |
| 2026-04-21 17:58 | 18.62298 | -72.06498 | 10445 ft | 274 kts | 107° |
| 2026-04-21 17:58 | 18.61662 | -72.04571 | 11177 ft | 279 kts | 109° |
| 2026-04-21 17:58 | 18.61008 | -72.02638 | 11881 ft | 284 kts | 109° |
| 2026-04-21 17:59 | 18.60353 | -72.00671 | 12604 ft | 288 kts | 108° |
| 2026-04-21 17:59 | 18.59617 | -71.98692 | 13308 ft | 293 kts | 116° |
| 2026-04-21 17:59 | 18.58554 | -71.96859 | 13955 ft | 299 kts | 127° |
| 2026-04-21 17:59 | 18.57201 | -71.95113 | 14345 ft | 316 kts | 130° |
| 2026-04-21 18:00 | 18.55716 | -71.93314 | 14653 ft | 334 kts | 131° |
| 2026-04-21 18:00 | 18.54170 | -71.91443 | 15001 ft | 349 kts | 130° |
| 2026-04-21 18:00 | 18.52458 | -71.89545 | 15555 ft | 357 kts | 141° |
| 2026-04-21 18:00 | 18.50353 | -71.88218 | 16218 ft | 358 kts | 159° |
| 2026-04-21 18:01 | 18.47947 | -71.87532 | 16895 ft | 359 kts | 170° |
| 2026-04-21 18:01 | 18.45451 | -71.87058 | 17519 ft | 363 kts | 172° |
| 2026-04-21 18:01 | 18.42969 | -71.86607 | 18123 ft | 367 kts | 172° |
| 2026-04-21 18:01 | 18.40443 | -71.86137 | 18740 ft | 371 kts | 172° |
| 2026-04-21 18:02 | 18.37894 | -71.85649 | 19354 ft | 374 kts | 172° |
| 2026-04-21 18:02 | 18.35307 | -71.85146 | 19964 ft | 377 kts | 172° |
| 2026-04-21 18:02 | 18.32700 | -71.84637 | 20561 ft | 380 kts | 172° |
| 2026-04-21 18:02 | 18.30089 | -71.84424 | 21092 ft | 378 kts | 189° |
| 2026-04-21 18:03 | 18.27574 | -71.85181 | 21661 ft | 372 kts | 210° |
| 2026-04-21 18:03 | 18.25519 | -71.86757 | 22226 ft | 366 kts | 230° |
| 2026-04-21 18:03 | 18.24096 | -71.88930 | 22769 ft | 363 kts | 248° |
| 2026-04-21 18:03 | 18.23428 | -71.91478 | 23311 ft | 361 kts | 264° |
| 2026-04-21 18:04 | 18.23150 | -71.94094 | 23762 ft | 367 kts | 261° |
| 2026-04-21 18:04 | 18.22337 | -71.96667 | 24120 ft | 377 kts | 244° |
| 2026-04-21 18:04 | 18.20788 | -71.98932 | 24664 ft | 383 kts | 234° |
| 2026-04-21 18:04 | 18.19134 | -72.01100 | 25151 ft | 386 kts | 234° |
| 2026-04-21 18:05 | 18.17374 | -72.03262 | 25601 ft | 392 kts | 226° |
| 2026-04-21 18:05 | 18.15044 | -72.04864 | 26051 ft | 405 kts | 207° |
| 2026-04-21 18:05 | 18.12279 | -72.05589 | 26587 ft | 416 kts | 188° |
| 2026-04-21 18:05 | 18.09362 | -72.05337 | 27118 ft | 426 kts | 169° |
| 2026-04-21 18:06 | 18.06615 | -72.04086 | 27555 ft | 436 kts | 152° |
| 2026-04-21 18:06 | 18.04040 | -72.02412 | 27967 ft | 441 kts | 151° |
| 2026-04-21 18:06 | 18.01422 | -72.00679 | 28324 ft | 445 kts | 151° |
| 2026-04-21 18:06 | 17.98788 | -71.98955 | 28704 ft | 449 kts | 151° |
| 2026-04-21 18:07 | 17.96107 | -71.97224 | 29112 ft | 451 kts | 152° |
| 2026-04-21 18:07 | 17.93437 | -71.95515 | 29530 ft | 453 kts | 152° |
| 2026-04-21 18:07 | 17.90717 | -71.93786 | 30071 ft | 452 kts | 152° |
| 2026-04-21 18:07 | 17.88052 | -71.92110 | 30641 ft | 450 kts | 152° |
| 2026-04-21 18:08 | 17.85332 | -71.90411 | 31189 ft | 448 kts | 152° |
| 2026-04-21 18:08 | 17.82653 | -71.88738 | 31681 ft | 447 kts | 153° |
| 2026-04-21 18:08 | 17.79999 | -71.87076 | 32143 ft | 447 kts | 153° |
| 2026-04-21 18:08 | 17.77302 | -71.85384 | 32599 ft | 446 kts | 153° |
| 2026-04-21 18:09 | 17.74625 | -71.83705 | 33060 ft | 446 kts | 153° |
| 2026-04-21 18:09 | 17.71996 | -71.82054 | 33537 ft | 445 kts | 153° |
| 2026-04-21 18:09 | 17.70203 | -71.80929 | 33834 ft | 444 kts | 153° |
| 2026-04-21 18:09 | 17.66682 | -71.78717 | 34349 ft | 445 kts | 153° |
| 2026-04-21 18:10 | 17.64021 | -71.77048 | 34698 ft | 446 kts | 153° |
| 2026-04-21 18:10 | 17.61354 | -71.75374 | 34971 ft | 448 kts | 153° |
| 2026-04-21 18:10 | 17.55984 | -71.72008 | 34992 ft | 448 kts | 153° |
| 2026-04-21 18:11 | 17.50626 | -71.68655 | 34997 ft | 448 kts | 153° |
| 2026-04-21 18:11 | 17.45257 | -71.65293 | 34997 ft | 448 kts | 153° |
| 2026-04-21 18:12 | 17.39903 | -71.61939 | 34997 ft | 447 kts | 152° |
| 2026-04-21 18:12 | 17.34580 | -71.58604 | 34997 ft | 447 kts | 152° |
| 2026-04-21 18:13 | 17.29206 | -71.55239 | 34997 ft | 447 kts | 152° |
| 2026-04-21 18:13 | 17.23886 | -71.51908 | 34996 ft | 447 kts | 152° |
| 2026-04-21 18:14 | 17.15868 | -71.46901 | 34995 ft | 447 kts | 152° |
| 2026-04-21 18:15 | 17.10527 | -71.43568 | 34995 ft | 447 kts | 152° |
| 2026-04-21 18:15 | 17.05186 | -71.40234 | 34995 ft | 446 kts | 152° |
| 2026-04-21 18:16 | 16.99822 | -71.36883 | 34996 ft | 447 kts | 152° |
| 2026-04-21 18:16 | 16.94496 | -71.33549 | 34997 ft | 446 kts | 152° |
| 2026-04-21 18:17 | 16.89168 | -71.30207 | 34992 ft | 445 kts | 152° |
| 2026-04-21 18:17 | 16.83856 | -71.26914 | 34990 ft | 445 kts | 153° |
| 2026-04-21 18:18 | 16.78508 | -71.23598 | 34986 ft | 445 kts | 152° |
| 2026-04-21 18:18 | 16.73218 | -71.20312 | 34978 ft | 445 kts | 152° |
| 2026-04-21 18:19 | 16.67884 | -71.17002 | 34977 ft | 445 kts | 152° |
| 2026-04-21 18:19 | 16.62532 | -71.13682 | 34977 ft | 445 kts | 152° |
| 2026-04-21 18:20 | 16.57218 | -71.10387 | 34977 ft | 445 kts | 152° |
| 2026-04-21 18:20 | 16.51882 | -71.07079 | 34976 ft | 444 kts | 152° |
| 2026-04-21 18:21 | 16.46579 | -71.03796 | 34978 ft | 444 kts | 152° |
| 2026-04-21 18:21 | 16.41269 | -71.00508 | 34977 ft | 443 kts | 152° |
| 2026-04-21 18:22 | 16.35954 | -70.97221 | 34977 ft | 444 kts | 152° |
| 2026-04-21 18:22 | 16.30610 | -70.93918 | 34976 ft | 443 kts | 152° |
| 2026-04-21 18:23 | 16.25276 | -70.90621 | 34977 ft | 443 kts | 152° |
| 2026-04-21 18:23 | 16.19998 | -70.87363 | 34976 ft | 442 kts | 152° |
| 2026-04-21 18:24 | 16.14670 | -70.84072 | 34976 ft | 442 kts | 152° |
| 2026-04-21 18:24 | 16.09373 | -70.80804 | 34976 ft | 442 kts | 152° |
| 2026-04-21 18:25 | 16.04071 | -70.77537 | 34975 ft | 442 kts | 152° |
| 2026-04-21 18:25 | 15.98701 | -70.74490 | 34976 ft | 439 kts | 158° |
| 2026-04-21 18:26 | 15.93112 | -70.71970 | 34975 ft | 438 kts | 160° |
| 2026-04-21 18:26 | 15.87469 | -70.69494 | 34974 ft | 437 kts | 160° |
| 2026-04-21 18:27 | 15.81883 | -70.67047 | 34977 ft | 437 kts | 160° |
| 2026-04-21 18:27 | 15.76286 | -70.64587 | 34974 ft | 436 kts | 160° |
| 2026-04-21 18:28 | 15.70683 | -70.62119 | 34970 ft | 436 kts | 160° |
| 2026-04-21 18:28 | 15.65057 | -70.59641 | 34970 ft | 437 kts | 160° |
| 2026-04-21 18:29 | 15.59482 | -70.57187 | 34967 ft | 436 kts | 160° |
| 2026-04-21 18:29 | 15.53859 | -70.54711 | 34967 ft | 437 kts | 160° |
| 2026-04-21 18:30 | 15.48281 | -70.52258 | 34967 ft | 436 kts | 160° |
| 2026-04-21 18:30 | 15.42687 | -70.49799 | 34961 ft | 436 kts | 160° |
| 2026-04-21 18:31 | 15.37066 | -70.47330 | 34963 ft | 436 kts | 160° |
| 2026-04-21 18:31 | 15.31469 | -70.44872 | 34961 ft | 436 kts | 160° |
| 2026-04-21 18:32 | 15.25911 | -70.42434 | 34959 ft | 436 kts | 160° |
| 2026-04-21 18:32 | 15.20292 | -70.39969 | 34961 ft | 436 kts | 160° |
| 2026-04-21 18:33 | 15.14710 | -70.37522 | 34958 ft | 435 kts | 160° |
| 2026-04-21 18:33 | 15.09131 | -70.35079 | 34958 ft | 435 kts | 160° |
| 2026-04-21 18:34 | 15.03518 | -70.32597 | 34955 ft | 435 kts | 160° |
| 2026-04-21 18:34 | 14.97965 | -70.30147 | 34957 ft | 435 kts | 160° |
| 2026-04-21 18:35 | 14.93292 | -70.28097 | 34955 ft | 435 kts | 160° |
| 2026-04-21 18:35 | 14.86790 | -70.25256 | 34954 ft | 434 kts | 160° |
| 2026-04-21 18:36 | 14.81225 | -70.22835 | 34954 ft | 434 kts | 160° |
| 2026-04-21 18:36 | 14.75646 | -70.20404 | 34952 ft | 435 kts | 160° |
| 2026-04-21 18:37 | 14.70048 | -70.17963 | 34953 ft | 435 kts | 160° |
| 2026-04-21 18:37 | 14.64453 | -70.15524 | 34962 ft | 434 kts | 160° |
| 2026-04-21 18:38 | 14.58887 | -70.13097 | 34958 ft | 434 kts | 160° |
| 2026-04-21 18:38 | 14.53320 | -70.10673 | 34948 ft | 433 kts | 160° |
| 2026-04-21 18:39 | 14.47737 | -70.08244 | 34944 ft | 433 kts | 160° |
| 2026-04-21 18:39 | 14.42200 | -70.05833 | 34945 ft | 434 kts | 160° |
| 2026-04-21 18:40 | 14.36636 | -70.03414 | 34942 ft | 434 kts | 160° |
| 2026-04-21 18:40 | 14.31979 | -70.01390 | 34942 ft | 434 kts | 160° |
| 2026-04-21 18:41 | 14.25489 | -69.98570 | 34940 ft | 434 kts | 160° |
| 2026-04-21 18:41 | 14.19881 | -69.96135 | 34939 ft | 433 kts | 160° |
| 2026-04-21 18:42 | 14.14321 | -69.93722 | 34937 ft | 433 kts | 160° |
| 2026-04-21 18:42 | 14.08782 | -69.91321 | 34937 ft | 432 kts | 160° |
| 2026-04-21 18:43 | 14.03218 | -69.88908 | 34937 ft | 432 kts | 160° |
| 2026-04-21 18:43 | 13.97663 | -69.86502 | 34933 ft | 432 kts | 159° |
| 2026-04-21 18:43 | 13.94882 | -69.85297 | 34550 ft | 429 kts | 159° |
| 2026-04-21 18:44 | 13.92137 | -69.84109 | 33251 ft | 434 kts | 159° |
| 2026-04-21 18:44 | 13.89357 | -69.82907 | 31594 ft | 444 kts | 159° |
| 2026-04-21 18:44 | 13.86517 | -69.81683 | 29936 ft | 451 kts | 159° |
| 2026-04-21 18:44 | 13.83614 | -69.80433 | 28461 ft | 451 kts | 159° |
| 2026-04-21 18:45 | 13.80798 | -69.79220 | 27897 ft | 429 kts | 159° |
| 2026-04-21 18:45 | 13.78047 | -69.78030 | 27639 ft | 424 kts | 159° |
| 2026-04-21 18:45 | 13.75334 | -69.76859 | 27312 ft | 421 kts | 159° |
| 2026-04-21 18:45 | 13.72644 | -69.75697 | 26917 ft | 418 kts | 159° |
| 2026-04-21 18:46 | 13.69959 | -69.74538 | 26489 ft | 415 kts | 158° |
| 2026-04-21 18:46 | 13.67300 | -69.73390 | 26048 ft | 412 kts | 158° |
| 2026-04-21 18:46 | 13.64671 | -69.72256 | 25607 ft | 408 kts | 158° |
| 2026-04-21 18:46 | 13.62064 | -69.71130 | 25147 ft | 405 kts | 158° |
| 2026-04-21 18:47 | 13.59491 | -69.70018 | 24683 ft | 402 kts | 158° |
| 2026-04-21 18:47 | 13.56897 | -69.68899 | 24217 ft | 398 kts | 158° |
| 2026-04-21 18:47 | 13.54336 | -69.67794 | 23749 ft | 395 kts | 157° |
| 2026-04-21 18:47 | 13.51824 | -69.66709 | 23290 ft | 392 kts | 157° |
| 2026-04-21 18:48 | 13.49326 | -69.65632 | 22844 ft | 388 kts | 157° |
| 2026-04-21 18:48 | 13.46851 | -69.64565 | 22400 ft | 385 kts | 156° |
| 2026-04-21 18:48 | 13.44366 | -69.63493 | 21962 ft | 382 kts | 156° |
| 2026-04-21 18:48 | 13.41942 | -69.62447 | 21539 ft | 379 kts | 156° |
| 2026-04-21 18:49 | 13.39498 | -69.61392 | 21117 ft | 375 kts | 156° |
| 2026-04-21 18:49 | 13.37090 | -69.60354 | 20705 ft | 372 kts | 156° |
| 2026-04-21 18:49 | 13.35509 | -69.59672 | 20434 ft | 370 kts | 156° |
| 2026-04-21 18:49 | 13.32350 | -69.58311 | 19891 ft | 366 kts | 156° |
| 2026-04-21 18:50 | 13.30028 | -69.57310 | 19489 ft | 363 kts | 156° |
| 2026-04-21 18:50 | 13.27698 | -69.56307 | 19088 ft | 360 kts | 156° |
| 2026-04-21 18:50 | 13.25405 | -69.55320 | 18691 ft | 357 kts | 156° |
| 2026-04-21 18:50 | 13.23100 | -69.54327 | 18286 ft | 355 kts | 156° |
| 2026-04-21 18:51 | 13.20825 | -69.53348 | 17880 ft | 352 kts | 156° |
| 2026-04-21 18:51 | 13.18589 | -69.52386 | 17479 ft | 349 kts | 156° |
| 2026-04-21 18:51 | 13.16361 | -69.51427 | 17080 ft | 346 kts | 156° |
| 2026-04-21 18:51 | 13.14110 | -69.50459 | 16671 ft | 344 kts | 156° |
| 2026-04-21 18:52 | 13.11910 | -69.49513 | 16268 ft | 341 kts | 156° |
| 2026-04-21 18:52 | 13.09728 | -69.48575 | 15863 ft | 338 kts | 156° |
| 2026-04-21 18:52 | 13.07542 | -69.47635 | 15464 ft | 335 kts | 156° |
| 2026-04-21 18:52 | 13.05384 | -69.46707 | 15067 ft | 333 kts | 156° |
| 2026-04-21 18:53 | 13.03245 | -69.45788 | 14672 ft | 330 kts | 156° |
| 2026-04-21 18:53 | 13.01133 | -69.44879 | 14278 ft | 328 kts | 156° |
| 2026-04-21 18:53 | 12.99029 | -69.43975 | 13889 ft | 326 kts | 156° |
| 2026-04-21 18:53 | 12.96936 | -69.43077 | 13497 ft | 325 kts | 156° |
| 2026-04-21 18:54 | 12.94865 | -69.42188 | 13111 ft | 324 kts | 156° |
| 2026-04-21 18:54 | 12.92769 | -69.41289 | 12725 ft | 324 kts | 156° |
| 2026-04-21 18:54 | 12.90569 | -69.40343 | 12341 ft | 366 kts | 156° |
| 2026-04-21 18:54 | 12.88119 | -69.39292 | 12622 ft | 386 kts | 156° |
| 2026-04-21 18:55 | 12.86488 | -69.38596 | 13014 ft | 380 kts | 156° |
| 2026-04-21 18:55 | 12.83298 | -69.37233 | 12917 ft | 362 kts | 156° |
| 2026-04-21 18:55 | 12.80999 | -69.36249 | 12264 ft | 350 kts | 156° |
| 2026-04-21 18:55 | 12.78789 | -69.35301 | 11346 ft | 345 kts | 156° |
| 2026-04-21 18:56 | 12.76603 | -69.34362 | 10372 ft | 341 kts | 156° |
| 2026-04-21 18:56 | 12.74437 | -69.33426 | 9601 ft | 329 kts | 156° |
| 2026-04-21 18:56 | 12.72409 | -69.32552 | 9523 ft | 303 kts | 156° |
| 2026-04-21 18:56 | 12.70490 | -69.31728 | 9520 ft | 298 kts | 156° |
| 2026-04-21 18:57 | 12.68556 | -69.30897 | 9455 ft | 297 kts | 156° |
| 2026-04-21 18:57 | 12.66663 | -69.30084 | 9289 ft | 295 kts | 156° |
| 2026-04-21 18:57 | 12.64770 | -69.29273 | 9057 ft | 295 kts | 156° |
| 2026-04-21 18:57 | 12.62865 | -69.28459 | 8766 ft | 294 kts | 156° |
| 2026-04-21 18:58 | 12.60963 | -69.27646 | 8452 ft | 293 kts | 156° |
| 2026-04-21 18:58 | 12.59077 | -69.26839 | 8137 ft | 291 kts | 156° |
| 2026-04-21 18:58 | 12.57205 | -69.26039 | 7820 ft | 289 kts | 156° |
| 2026-04-21 18:58 | 12.55354 | -69.25248 | 7507 ft | 288 kts | 156° |
| 2026-04-21 18:59 | 12.53505 | -69.24458 | 7194 ft | 286 kts | 156° |
| 2026-04-21 18:59 | 12.51662 | -69.23671 | 6880 ft | 284 kts | 156° |
| 2026-04-21 18:59 | 12.49835 | -69.22890 | 6563 ft | 283 kts | 156° |
| 2026-04-21 18:59 | 12.48031 | -69.22120 | 6255 ft | 281 kts | 156° |
| 2026-04-21 19:00 | 12.46220 | -69.21345 | 5943 ft | 279 kts | 156° |
| 2026-04-21 19:00 | 12.44436 | -69.20585 | 5633 ft | 278 kts | 156° |
| 2026-04-21 19:00 | 12.42663 | -69.19828 | 5329 ft | 276 kts | 155° |
| 2026-04-21 19:00 | 12.40892 | -69.19073 | 5016 ft | 274 kts | 155° |
| 2026-04-21 19:01 | 12.39110 | -69.18313 | 4703 ft | 273 kts | 155° |
| 2026-04-21 19:01 | 12.37370 | -69.17570 | 4393 ft | 271 kts | 155° |
| 2026-04-21 19:01 | 12.35629 | -69.16829 | 4074 ft | 270 kts | 154° |
| 2026-04-21 19:01 | 12.33893 | -69.16105 | 3759 ft | 268 kts | 158° |
| 2026-04-21 19:02 | 12.32087 | -69.15646 | 3456 ft | 268 kts | 169° |
| 2026-04-21 19:02 | 12.30222 | -69.15477 | 3163 ft | 267 kts | 173° |
| 2026-04-21 19:02 | 12.28345 | -69.15378 | 2864 ft | 265 kts | 174° |
| 2026-04-21 19:02 | 12.26497 | -69.15287 | 2568 ft | 263 kts | 174° |
| 2026-04-21 19:03 | 12.24689 | -69.15177 | 2439 ft | 250 kts | 168° |
| 2026-04-21 19:03 | 12.23205 | -69.14577 | 2387 ft | 216 kts | 132° |
| 2026-04-21 19:03 | 12.22457 | -69.13402 | 2396 ft | 186 kts | 103° |
| 2026-04-21 19:03 | 12.22205 | -69.12149 | 2530 ft | 172 kts | 97° |
| 2026-04-21 19:04 | 12.22022 | -69.10997 | 2479 ft | 151 kts | 97° |
| 2026-04-21 19:04 | 12.21847 | -69.10020 | 2423 ft | 135 kts | 97° |
| 2026-04-21 19:04 | 12.21667 | -69.09087 | 2311 ft | 131 kts | 98° |
| 2026-04-21 19:04 | 12.21482 | -69.08190 | 2150 ft | 128 kts | 98° |
| 2026-04-21 19:05 | 12.21295 | -69.07304 | 1990 ft | 127 kts | 98° |
| 2026-04-21 19:05 | 12.21109 | -69.06426 | 1832 ft | 124 kts | 98° |
| 2026-04-21 19:05 | 12.20923 | -69.05559 | 1671 ft | 123 kts | 98° |
| 2026-04-21 19:05 | 12.20741 | -69.04707 | 1516 ft | 124 kts | 99° |
| 2026-04-21 19:06 | 12.20556 | -69.03843 | 1358 ft | 125 kts | 98° |
| 2026-04-21 19:06 | 12.20371 | -69.02967 | 1193 ft | 126 kts | 99° |
| 2026-04-21 19:06 | 12.20185 | -69.02087 | 1037 ft | 128 kts | 98° |
| 2026-04-21 19:06 | 12.19994 | -69.01187 | 877 ft | 129 kts | 98° |
| 2026-04-21 19:07 | 12.19808 | -69.00305 | 717 ft | 127 kts | 101° |
| 2026-04-21 19:07 | 12.19619 | -68.99419 | 549 ft | 128 kts | 99° |
| 2026-04-21 19:07 | 12.19431 | -68.98525 | 396 ft | 129 kts | 102° |
| 2026-04-21 19:07 | 12.19243 | -68.97630 | 231 ft | 128 kts | 102° |
| 2026-04-21 19:08 | 12.19055 | -68.96729 | 73 ft | 129 kts | 101° |
| 2026-04-21 19:08 | 12.18898 | -68.95903 | 42 ft | 90 kts | 103° |
| 2026-04-21 19:08 | 12.18804 | -68.95493 | 41 ft | 51 kts | 101° |
| 2026-04-21 19:08 | 12.18672 | -68.95408 | 44 ft | 14 kts | 204° |
| 2026-04-21 19:09 | 12.18604 | -68.95464 | 48 ft | 11 kts | 250° |
| 2026-04-21 19:09 | 12.18605 | -68.95546 | 48 ft | 12 kts | 276° |
| 2026-04-21 19:09 | 12.18602 | -68.95612 | 49 ft | 6 kts | 227° |
| 2026-04-21 19:09 | 12.18575 | -68.95622 | 50 ft | 2 kts | 192° |
| 2026-04-21 19:10 | 12.18567 | -68.95624 | 51 ft | 0 kts | 192° |
| 2026-04-21 19:10 | 12.18546 | -68.95628 | 52 ft | 1 kts | 192° |
| 2026-04-21 19:10 | 12.18543 | -68.95629 | 52 ft | 0 kts | 192° |
| 2026-04-21 19:10 | 12.18541 | -68.95629 | 52 ft | 0 kts | 192° |